Flight Track Log - Related Links

Times and Time Zones

All times are in EDT time to prevent confusion due to time zone crossing. See the IBE475 flight status page for this flight to view local times or setup timezone preferences in your user account.

Time Position Orientation Groundspeed Altitude Reporting Facility
EDT Latitude Longitude Course Direction KTS MPH feet Rate Location/Type
Fri 08:06:00 AM 42.9876 -5.5497 148° Southeast  Level Estimated
Fri 08:07:00 AM 42.9051 -5.4811 149° Southeast  Level Estimated
Fri 08:08:00 AM 42.8226 -5.4127 149° Southeast  Level Estimated
Fri 08:09:00 AM 42.7401 -5.3446 149° Southeast  Level Estimated
Fri 08:10:00 AM 42.6575 -5.2766 149° Southeast  Level Estimated
Fri 08:11:00 AM 42.5749 -5.2088 149° Southeast  Level Estimated
Fri 08:12:00 AM 42.4923 -5.1411 149° Southeast  Level Estimated
Fri 08:13:00 AM 42.4096 -5.0737 149° Southeast  Level Estimated
Fri 08:14:00 AM 42.3269 -5.0064 149° Southeast  Level Estimated
Fri 08:15:00 AM 42.2441 -4.9393 149° Southeast  Level Estimated
Fri 08:16:00 AM 42.1613 -4.8724 149° Southeast  Level Estimated
Fri 08:17:00 AM 42.0784 -4.8057 149° Southeast  Level Estimated
Fri 08:18:00 AM 41.9955 -4.7391 149° Southeast  Level Estimated
Fri 08:19:00 AM 41.9126 -4.6727 149° Southeast  Level Estimated
Fri 08:20:00 AM 41.8296 -4.6065 149° Southeast  Level Estimated
Fri 08:21:00 AM 41.7466 -4.5404 149° Southeast  Level Estimated
Fri 08:22:00 AM 41.6636 -4.4745 149° Southeast  Level Estimated
Fri 08:23:00 AM 41.5805 -4.4088 149° Southeast  Level Estimated
Fri 08:24:00 AM 41.4974 -4.3432 149° Southeast  Level Estimated
Fri 08:25:00 AM 41.4143 -4.2779 149° Southeast  Level Estimated
Fri 08:26:00 AM 41.3311 -4.2126 150° Southeast  Level Estimated
Fri 08:27:00 AM 41.2478 -4.1476 150° Southeast  Level Estimated
Fri 08:28:00 AM 41.1646 -4.0827 150° Southeast  Level Estimated
Fri 08:29:00 AM 41.0813 -4.0180 150° Southeast  Level Estimated
Fri 08:30:00 AM 40.9980 -3.9534 150° Southeast  Level Estimated
Fri 08:31:00 AM 40.9146 -3.8891 150° Southeast  Level Estimated
Fri 08:32:00 AM 40.8312 -3.8248 150° Southeast  Level Estimated
Fri 08:33:00 AM 40.7477 -3.7608 150° Southeast  Level Estimated
Fri 08:34:00 AM 40.6642 -3.6969 150° Southeast  Level Estimated
Fri 08:35:00 AM 40.5807 -3.6331 150° Southeast  Level Estimated
Fri 08:36:00 AM 40.4972 -3.5695 150° Southeast  Level Estimated
Fri 08:37:00 AM 40.4936 -3.5668 150° Southeast  Level Estimated
Fri 08:38:00 AM 40.4936 -3.5668 217° Southwest  Level Estimated
Fri 08:39:00 AM 40.4936 -3.5668 217° Southwest  Level Estimated
Fri 08:40:00 AM 40.4936 -3.5668 217° Southwest  Level Estimated
Fri 08:41:00 AM 40.4936 -3.5668 217° Southwest  Level Estimated
Fri 08:42:00 AM 40.4936 -3.5668 217° Southwest  Level Estimated
Fri 08:43:00 AM 40.4936 -3.5668 217° Southwest  Level Estimated
Fri 08:44:00 AM 40.4936 -3.5668 217° Southwest  Level Estimated
Fri 08:45:00 AM 40.4936 -3.5668 217° Southwest  Level Estimated
Fri 08:46:00 AM 40.4936 -3.5668 217° Southwest  Level Estimated
Fri 08:47:00 AM 40.4936 -3.5668 217° Southwest  Level Estimated
Fri 08:48:00 AM 40.4936 -3.5668 217° Southwest  Level Estimated
Fri 08:49:00 AM 40.4936 -3.5668 217° Southwest  Level Estimated
Fri 08:50:00 AM 40.4936 -3.5668 217° Southwest  Level Estimated
Fri 08:51:00 AM 40.4936 -3.5668 217° Southwest  Level Estimated
Fri 08:52:00 AM 40.4936 -3.5668 217° Southwest  Level Estimated

Login

Don't have an account? Register now (free) for customized features, flight alerts, and more!